Pagrindinis puslapis
METAR-TAF:

METAR-TAF

Oro uostai :

Monte Argentario, Italija

platuma: 42-23N, ilguma: 011-10E, Aukštis: 630 m

Dabartinis oras

Ataskaita buvo paskelbta 6 valandos ir 9 minutes, ne 17:55 UTC
Vėjas 8 kt iš Vakarų/Šiaurės Vakarų
Temperatūra 14°C
Drėgmė 24%
Slėgis 1025 hPa
Matomumas 10 km arba daugiau
nėra debesų žemiau 1500 m ir nėra kamuolinių lietaus debesų

METAR: LIQO 071755Z 30008KT CAVOK 14/M06 Q1025 RMK SKC VAL NIL NC VIS MIN 9999

Laikas: 02:04 (00:04 UTC)


TAF: trūkstamas

Orai ataskaitas ir orų prognozės (METAR, TAF).

turimą stotys yra geltonos ir raudonos taškus žemėlapyje.

Perkelti pele per norėdami pamatyti stoties vardą.

Tada spustelėkite, norėdami matyti oro stebėjimo ir prognozės.

Norėdami pakeisti žemėlapį: spustelėkite ant žalios mygtukų su juodo kryžiaus žemyn,; žalią mygtuką su brūkšneliu, jei norite nutolinti; arba žalių rodyklių gretimoms žemėlapius.


METAR-TAF: